Rapid City, SD

1:54 PM MST on February 25, 2017 (GMT -0700)
Rapid City Regional | | Change Station
Active Advisory: Special Statement

Elev 3202 ft 44.05 °N, 103.06 °W | Updated 11 minutes ago

Snow
Snow
28 °F
Feels Like 19 °F
N
9
Wind Variable Wind from SSW

Today
High -- | Low -- °F
--% Chance of Precip.
Yesterday
High -- | Low -- °F
Precip. -- in
Pressure 29.80 in
Visibility 1.5 miles
Clouds Mostly Cloudy 2900 ft
Mostly Cloudy 3400 ft
Overcast 4900 ft
Windchill 19 °F
Dew Point 23 °F
Humidity 81%
Rainfall 0.00 in
Snow Depth Not available.
6:35 AM 5:35 PM
Waning Crescent, 1% visible
SPECI KRAP 252043Z 21008KT 1 1/2SM -SN BKN029 BKN034 OVC049 M02/M05 A2980 RMK AO2 SNB16 P0000 T10221050
Pressure 29.80 in
Visibility 1.5 miles
Clouds Mostly Cloudy 2900 ft
Mostly Cloudy 3400 ft
Overcast 4900 ft
Windchill 19 °F
Dew Point 23 °F
Humidity 81%
Rainfall 0.00 in
Snow Depth Not available.
6:35 AM 5:35 PM
Waning Crescent, 1% visible
SPECI KRAP 252043Z 21008KT 1 1/2SM -SN BKN029 BKN034 OVC049 M02/M05 A2980 RMK AO2 SNB16 P0000 T10221050

Get Your Daily Forecast Email!

Thanks for signing up!

Be on the lookout for a verification email in your inbox.

You'll start receiving the daily forecast at 8 AM.

×

10-Day Weather Forecast

Almanac

Astronomy

Feb. 25, 2017 Rise Set
Actual Time
Civil Twilight
Nautical Twilight
Astronomical Twilight
Moon
Length of Visible Light
Length of Day
Tomorrow will be .
, % of the Moon is Illuminated

Today's Extremes

State Highs State Lows

Community

WunderPhotos

Upload Photos

1,962,540 photos uploaded!

WunderBlog® & News

Nearby

Air Quality

  Air Quality AQ Index Pollutant
Not available.

Snow Depth

Station Depth Elevation

Earthquake Activity

City Distance Mag. Time & Date
Minimum magnitude displayed is 2.5.

Coastal Water Temperatures

Place Temperature

Stations

Nearby Weather Stations

Station Location Temp. Windchill Dew Point Humidity Wind Precip. Elev Updated Type
                   

Watches & Warnings

Special Statement
Issued: 2:36 PM CST Feb. 25, 2017 – National Weather Service

... Bursts of snow showers through this afternoon...

Scattered snow showers are expected through this afternoon. The
strongest snow showers will reduce visibilities at times, so
don't Forget to use your headlights and slow down while driving.
Minor accumulations are expected, mainly on grassy areas.



136 PM MST Sat Feb 25 2017 /236 PM CST Sat Feb 25 2017/

... Bursts of snow showers through this afternoon...

Scattered snow showers are expected through this afternoon. The
strongest snow showers will reduce visibilities at times, so
don't Forget to use your headlights and slow down while driving.
Minor accumulations are expected, mainly on grassy areas.